Time;durP1;ratioP1;P1;durP2;ratioP2;P2;SDS_P1;SDS_P2;PMS_P1;PMS_P2;Temp;Humidity;BMP_temperature;BMP_pressure;BME280_temperature;BME280_humidity;BME280_pressure;Samples;Min_cycle;Max_cycle;Signal;HPM_P1;HPM_P2
2022/06/11 00:00:49;;;;;;;;;;;;;;;;;;2097995;28;19920;-45
2022/06/11 00:01:50;;;;;;;;;;;;;;;;;;2098016;28;19965;-44
2022/06/11 00:02:51;;;;;;;;;;;;;;;;;;2097930;28;20384;-46
2022/06/11 00:03:52;;;;;;;;;;;;;;;;;;2098092;28;19920;-46
2022/06/11 00:04:53;;;;;;;;;;;;;;;;;;2097930;28;20020;-45
2022/06/11 00:05:54;;;;;;;;;;;;;;;;;;2097949;28;19939;-45
2022/06/11 00:06:55;;;;;;;;;;;;;;;;;;2097884;28;20324;-44
2022/06/11 00:07:57;;;;;;;;;;;;;;;;;;2098135;28;19973;-45
2022/06/11 00:08:58;;;;;;;;;;;;;;;;;;2097866;28;19925;-45
2022/06/11 00:09:58;;;;;;;;;;;;;;;;;;2097817;28;19920;-46
2022/06/11 00:10:59;;;;;;;;;;;;;;;;;;2096550;28;19924;-45
2022/06/11 00:12:00;;;;;;;;;;;;;;;;;;2089571;28;20024;-47
2022/06/11 00:13:01;;;;;;;;;;;;;;;;;;2089717;28;19920;-42
2022/06/11 00:14:02;;;;;;;;;;;;;;;;;;2089989;28;19920;-46
2022/06/11 00:15:03;;;;;;;;;;;;;;;;;;2089531;28;19931;-45
2022/06/11 00:16:04;;;;;;;;;;;;;;;;;;2089703;28;19954;-45
2022/06/11 00:17:05;;;;;;;;;;;;;;;;;;2089609;28;20282;-45
2022/06/11 00:18:06;;;;;;;;;;;;;;;;;;2089410;28;19943;-45
2022/06/11 00:19:07;;;;;;;;;;;;;;;;;;2089717;28;19960;-46
2022/06/11 00:20:08;;;;;;;;;;;;;;;;;;2089541;28;20014;-46
2022/06/11 00:21:09;;;;;;;;;;;;;;;;;;2089449;28;20346;-45
2022/06/11 00:22:10;;;;;;;;;;;;;;;;;;2089659;28;20011;-45
2022/06/11 00:23:11;;;;;;;;;;;;;;;;;;2089531;28;20385;-45
2022/06/11 00:24:12;;;;;;;;;;;;;;;;;;2089557;28;19920;-45
2022/06/11 00:25:13;;;;;;;;;;;;;;;;;;2089630;28;20015;-46
2022/06/11 00:26:14;;;;;;;;;;;;;;;;;;2089885;28;19921;-43
2022/06/11 00:27:15;;;;;;;;;;;;;;;;;;2089422;28;19921;-43
2022/06/11 00:28:15;;;;;;;;;;;;;;;;;;2089608;28;19922;-43
2022/06/11 00:29:16;;;;;;;;;;;;;;;;;;2089689;28;20025;-45
2022/06/11 00:30:18;;;;;;;;;;;;;;;;;;2089644;28;20593;-47
2022/06/11 00:31:19;;;;;;;;;;;;;;;;;;2089371;28;19956;-46
2022/06/11 00:32:20;;;;;;;;;;;;;;;;;;2089532;28;20354;-46
2022/06/11 00:33:21;;;;;;;;;;;;;;;;;;2089548;28;19943;-47
2022/06/11 00:34:22;;;;;;;;;;;;;;;;;;2089511;28;20282;-46
2022/06/11 00:35:23;;;;;;;;;;;;;;;;;;2089625;28;19977;-46
2022/06/11 00:36:23;;;;;;;;;;;;;;;;;;2089447;28;19921;-47
2022/06/11 00:37:24;;;;;;;;;;;;;;;;;;2089748;28;20342;-43
2022/06/11 00:38:25;;;;;;;;;;;;;;;;;;2089478;28;20040;-43
2022/06/11 00:39:26;;;;;;;;;;;;;;;;;;2089517;28;19920;-45
2022/06/11 00:40:27;;;;;;;;;;;;;;;;;;2089502;28;20027;-43
2022/06/11 00:41:28;;;;;;;;;;;;;;;;;;2089365;28;20515;-44
2022/06/11 00:42:29;;;;;;;;;;;;;;;;;;2089380;28;19925;-44
2022/06/11 00:43:29;;;;;;;;;;;;;;;;;;2089547;28;19925;-43
2022/06/11 00:44:30;;;;;;;;;;;;;;;;;;2089557;28;19928;-44
2022/06/11 00:45:31;;;;;;;;;;;;;;;;;;2089485;28;20336;-44
2022/06/11 00:46:32;;;;;;;;;;;;;;;;;;2089349;28;19921;-43
2022/06/11 00:47:33;;;;;;;;;;;;;;;;;;2089400;28;19921;-43
2022/06/11 00:48:34;;;;;;;;;;;;;;;;;;2089383;28;20492;-44
2022/06/11 00:49:35;;;;;;;;;;;;;;;;;;2089430;28;19952;-43
2022/06/11 00:50:37;;;;;;;;;;;;;;;;;;2089624;28;20004;-42
2022/06/11 00:51:38;;;;;;;;;;;;;;;;;;2089283;28;20417;-44
2022/06/11 00:52:39;;;;;;;;;;;;;;;;;;2092599;28;20011;-42
2022/06/11 00:53:40;;;;;;;;;;;;;;;;;;2097646;28;20007;-44
2022/06/11 00:54:41;;;;;;;;;;;;;;;;;;2097600;28;20381;-44
2022/06/11 00:55:42;;;;;;;;;;;;;;;;;;2097951;28;20358;-46
2022/06/11 00:56:44;;;;;;;;;;;;;;;;;;2097519;28;19972;-46
2022/06/11 00:57:45;;;;;;;;;;;;;;;;;;2097742;28;20043;-44
2022/06/11 00:58:45;;;;;;;;;;;;;;;;;;2097836;28;19924;-47
2022/06/11 00:59:46;;;;;;;;;;;;;;;;;;2097761;28;19927;-46
2022/06/11 01:00:47;;;;;;;;;;;;;;;;;;2097591;28;19921;-46
2022/06/11 01:01:48;;;;;;;;;;;;;;;;;;2097784;28;20023;-46
2022/06/11 01:02:49;;;;;;;;;;;;;;;;;;2097910;28;20011;-44
2022/06/11 01:03:50;;;;;;;;;;;;;;;;;;2097717;28;19928;-44
2022/06/11 01:04:52;;;;;;;;;;;;;;;;;;2097629;28;20286;-44
2022/06/11 01:05:53;;;;;;;;;;;;;;;;;;2097876;28;20007;-43
2022/06/11 01:06:54;;;;;;;;;;;;;;;;;;2097724;28;19920;-44
2022/06/11 01:07:56;;;;;;;;;;;;;;;;;;2098189;28;20413;-47
2022/06/11 01:08:57;;;;;;;;;;;;;;;;;;2099252;28;19920;-46
2022/06/11 01:09:57;;;;;;;;;;;;;;;;;;2098946;28;20414;-46
2022/06/11 01:10:58;;;;;;;;;;;;;;;;;;2098225;28;19920;-46
2022/06/11 01:11:59;;;;;;;;;;;;;;;;;;2090732;28;19956;-47
2022/06/11 01:13:00;;;;;;;;;;;;;;;;;;2090752;28;20294;-46
2022/06/11 01:14:01;;;;;;;;;;;;;;;;;;2090836;28;19920;-46
2022/06/11 01:15:02;;;;;;;;;;;;;;;;;;2090827;28;19948;-46
2022/06/11 01:16:02;;;;;;;;;;;;;;;;;;2090724;28;19991;-46
2022/06/11 01:17:03;;;;;;;;;;;;;;;;;;2090632;28;19921;-46
2022/06/11 01:18:04;;;;;;;;;;;;;;;;;;2090871;28;19924;-47
2022/06/11 01:19:05;;;;;;;;;;;;;;;;;;2090774;28;19920;-45
2022/06/11 01:20:06;;;;;;;;;;;;;;;;;;2090744;28;19924;-46
2022/06/11 01:21:07;;;;;;;;;;;;;;;;;;2090750;28;19979;-46
2022/06/11 01:22:08;;;;;;;;;;;;;;;;;;2090697;28;19935;-46
2022/06/11 01:23:09;;;;;;;;;;;;;;;;;;2090735;28;20309;-46
2022/06/11 01:24:10;;;;;;;;;;;;;;;;;;2090817;28;19966;-46
2022/06/11 01:25:11;;;;;;;;;;;;;;;;;;2090632;28;20007;-46
2022/06/11 01:26:12;;;;;;;;;;;;;;;;;;2090775;28;19956;-47
2022/06/11 01:27:13;;;;;;;;;;;;;;;;;;2090689;28;20297;-46
2022/06/11 01:28:13;;;;;;;;;;;;;;;;;;2090599;28;20462;-46
2022/06/11 01:29:14;;;;;;;;;;;;;;;;;;2090881;28;19920;-44
2022/06/11 01:30:15;;;;;;;;;;;;;;;;;;2090633;28;19921;-43
2022/06/11 01:31:16;;;;;;;;;;;;;;;;;;2090529;28;20361;-44
2022/06/11 01:32:17;;;;;;;;;;;;;;;;;;2091080;28;19921;-46
2022/06/11 01:33:18;;;;;;;;;;;;;;;;;;2090650;28;19925;-46
2022/06/11 01:34:19;;;;;;;;;;;;;;;;;;2090825;28;20042;-44
2022/06/11 01:35:20;;;;;;;;;;;;;;;;;;2090711;28;19920;-46
2022/06/11 01:36:21;;;;;;;;;;;;;;;;;;2090568;28;19971;-44
2022/06/11 01:37:22;;;;;;;;;;;;;;;;;;2090622;28;19932;-44
2022/06/11 01:38:22;;;;;;;;;;;;;;;;;;2090725;28;20015;-44
2022/06/11 01:39:23;;;;;;;;;;;;;;;;;;2090555;28;20280;-44
2022/06/11 01:40:24;;;;;;;;;;;;;;;;;;2090559;28;19924;-44
2022/06/11 01:41:25;;;;;;;;;;;;;;;;;;2090486;28;19927;-45
2022/06/11 01:42:26;;;;;;;;;;;;;;;;;;2090714;28;19921;-44
2022/06/11 01:43:27;;;;;;;;;;;;;;;;;;2090437;28;19920;-44
2022/06/11 01:44:31;;;;;;;;;;;;;;;;;;2090542;28;19956;-44
2022/06/11 01:45:32;;;;;;;;;;;;;;;;;;2090491;28;20015;-44
2022/06/11 01:46:33;;;;;;;;;;;;;;;;;;2090505;28;19928;-45
2022/06/11 01:47:34;;;;;;;;;;;;;;;;;;2090844;28;20342;-46
2022/06/11 01:48:35;;;;;;;;;;;;;;;;;;2091308;28;20217;-48
2022/06/11 01:49:36;;;;;;;;;;;;;;;;;;2098849;28;19990;-50
2022/06/11 01:50:37;;;;;;;;;;;;;;;;;;2098791;28;19920;-46
2022/06/11 01:51:38;;;;;;;;;;;;;;;;;;2098767;28;20440;-46
2022/06/11 01:52:38;;;;;;;;;;;;;;;;;;2098636;28;19964;-46
2022/06/11 01:53:39;;;;;;;;;;;;;;;;;;2098918;28;19944;-47
2022/06/11 01:54:40;;;;;;;;;;;;;;;;;;2098753;28;19925;-46
2022/06/11 01:55:41;;;;;;;;;;;;;;;;;;2098815;28;19970;-46
2022/06/11 01:56:42;;;;;;;;;;;;;;;;;;2098773;28;19928;-47
2022/06/11 01:57:43;;;;;;;;;;;;;;;;;;2098916;28;19995;-46
2022/06/11 01:58:44;;;;;;;;;;;;;;;;;;2098981;28;19927;-47
2022/06/11 01:59:45;;;;;;;;;;;;;;;;;;2099061;28;19943;-44
2022/06/11 02:00:46;;;;;;;;;;;;;;;;;;2098888;28;20263;-46
2022/06/11 02:01:46;;;;;;;;;;;;;;;;;;2098666;28;20369;-46
2022/06/11 02:02:47;;;;;;;;;;;;;;;;;;2098651;28;19930;-46
2022/06/11 02:03:48;;;;;;;;;;;;;;;;;;2098022;28;19928;-46
2022/06/11 02:04:49;;;;;;;;;;;;;;;;;;2098062;28;19952;-46
2022/06/11 02:05:50;;;;;;;;;;;;;;;;;;2097967;28;19970;-47
2022/06/11 02:06:51;;;;;;;;;;;;;;;;;;2098503;28;20327;-46
2022/06/11 02:07:52;;;;;;;;;;;;;;;;;;2097980;28;20416;-46
2022/06/11 02:08:53;;;;;;;;;;;;;;;;;;2098174;28;19920;-46
2022/06/11 02:09:54;;;;;;;;;;;;;;;;;;2098573;28;20310;-46
2022/06/11 02:10:55;;;;;;;;;;;;;;;;;;2098316;28;20011;-46
2022/06/11 02:11:55;;;;;;;;;;;;;;;;;;2099015;28;19924;-45
2022/06/11 02:12:56;;;;;;;;;;;;;;;;;;2098742;28;19927;-47
2022/06/11 02:13:57;;;;;;;;;;;;;;;;;;2098838;28;19964;-44
2022/06/11 02:14:58;;;;;;;;;;;;;;;;;;2098600;28;19920;-43
2022/06/11 02:15:59;;;;;;;;;;;;;;;;;;2098672;28;20377;-44
2022/06/11 02:17:00;;;;;;;;;;;;;;;;;;2098530;28;20024;-43
2022/06/11 02:18:01;;;;;;;;;;;;;;;;;;2098937;28;19975;-46
2022/06/11 02:19:02;;;;;;;;;;;;;;;;;;2098658;28;20419;-47
2022/06/11 02:20:02;;;;;;;;;;;;;;;;;;2098016;28;20003;-46
2022/06/11 02:21:03;;;;;;;;;;;;;;;;;;2098894;28;20267;-44
2022/06/11 02:22:04;;;;;;;;;;;;;;;;;;2098548;28;19954;-44
2022/06/11 02:23:05;;;;;;;;;;;;;;;;;;2098701;28;19971;-43
2022/06/11 02:24:06;;;;;;;;;;;;;;;;;;2098521;28;20018;-44
2022/06/11 02:25:07;;;;;;;;;;;;;;;;;;2099124;28;19921;-44
2022/06/11 02:26:08;;;;;;;;;;;;;;;;;;2098486;28;20011;-43
2022/06/11 02:27:09;;;;;;;;;;;;;;;;;;2098647;28;19963;-44
2022/06/11 02:28:10;;;;;;;;;;;;;;;;;;2098523;28;19921;-44
2022/06/11 02:29:11;;;;;;;;;;;;;;;;;;2098461;28;19920;-44
2022/06/11 02:30:12;;;;;;;;;;;;;;;;;;2098522;28;20354;-44
2022/06/11 02:31:13;;;;;;;;;;;;;;;;;;2098608;28;19920;-46
2022/06/11 02:32:13;;;;;;;;;;;;;;;;;;2099107;28;19920;-43
2022/06/11 02:33:14;;;;;;;;;;;;;;;;;;2098521;28;20018;-44
2022/06/11 02:34:15;;;;;;;;;;;;;;;;;;2098663;28;20054;-44
2022/06/11 02:35:16;;;;;;;;;;;;;;;;;;2098483;28;20397;-43
2022/06/11 02:36:17;;;;;;;;;;;;;;;;;;2098791;28;19920;-48
2022/06/11 02:37:18;;;;;;;;;;;;;;;;;;2098392;28;19928;-47
2022/06/11 02:38:19;;;;;;;;;;;;;;;;;;2098596;28;19921;-46
2022/06/11 02:39:20;;;;;;;;;;;;;;;;;;2098552;28;19920;-46
2022/06/11 02:40:21;;;;;;;;;;;;;;;;;;2098571;28;19927;-44
2022/06/11 02:41:21;;;;;;;;;;;;;;;;;;2098533;28;20358;-46
2022/06/11 02:42:22;;;;;;;;;;;;;;;;;;2098426;28;19956;-46
2022/06/11 02:43:23;;;;;;;;;;;;;;;;;;2098671;28;20368;-45
2022/06/11 02:44:24;;;;;;;;;;;;;;;;;;2098665;28;19977;-46
2022/06/11 02:45:25;;;;;;;;;;;;;;;;;;2098240;28;20016;-46
2022/06/11 02:46:41;;;;;;;;;;;;;;;;;;2098612;28;20009;-44
2022/06/11 02:47:42;;;;;;;;;;;;;;;;;;2098308;28;19920;-44
2022/06/11 02:48:43;;;;;;;;;;;;;;;;;;2098478;28;20396;-44
2022/06/11 02:49:44;;;;;;;;;;;;;;;;;;2098406;28;20081;-43
2022/06/11 02:50:46;;;;;;;;;;;;;;;;;;2098559;28;19920;-46
2022/06/11 02:51:47;;;;;;;;;;;;;;;;;;2098504;28;20007;-46
2022/06/11 02:52:48;;;;;;;;;;;;;;;;;;2098308;28;19970;-47
2022/06/11 02:53:49;;;;;;;;;;;;;;;;;;2098358;28;20009;-46
2022/06/11 02:54:50;;;;;;;;;;;;;;;;;;2098384;28;20341;-46
2022/06/11 02:55:51;;;;;;;;;;;;;;;;;;2098500;28;19955;-46
2022/06/11 02:56:51;;;;;;;;;;;;;;;;;;2098221;28;20381;-46
2022/06/11 02:57:52;;;;;;;;;;;;;;;;;;2098515;28;19920;-46
2022/06/11 02:58:53;;;;;;;;;;;;;;;;;;2098369;28;20384;-47
2022/06/11 02:59:54;;;;;;;;;;;;;;;;;;2098240;28;19921;-45
2022/06/11 03:00:55;;;;;;;;;;;;;;;;;;2098397;28;19958;-45
2022/06/11 03:01:56;;;;;;;;;;;;;;;;;;2098434;28;19921;-46
2022/06/11 03:02:57;;;;;;;;;;;;;;;;;;2098406;28;19925;-46
2022/06/11 03:03:58;;;;;;;;;;;;;;;;;;2098473;28;19928;-46
2022/06/11 03:04:59;;;;;;;;;;;;;;;;;;2098253;28;19993;-47
2022/06/11 03:06:00;;;;;;;;;;;;;;;;;;2098348;28;19946;-45
2022/06/11 03:07:00;;;;;;;;;;;;;;;;;;2098196;28;19920;-45
2022/06/11 03:08:01;;;;;;;;;;;;;;;;;;2098240;28;20018;-46
2022/06/11 03:09:02;;;;;;;;;;;;;;;;;;2098217;28;19920;-46
2022/06/11 03:10:03;;;;;;;;;;;;;;;;;;2098403;28;20419;-46
2022/06/11 03:11:04;;;;;;;;;;;;;;;;;;2096353;28;19928;-47
2022/06/11 03:12:05;;;;;;;;;;;;;;;;;;2089993;28;20011;-45
2022/06/11 03:13:05;;;;;;;;;;;;;;;;;;2090151;28;20448;-45
2022/06/11 03:14:07;;;;;;;;;;;;;;;;;;2090076;28;19932;-43
2022/06/11 03:15:08;;;;;;;;;;;;;;;;;;2089907;28;20461;-43
2022/06/11 03:16:09;;;;;;;;;;;;;;;;;;2089821;28;19927;-45
2022/06/11 03:17:10;;;;;;;;;;;;;;;;;;2089869;28;20381;-45
2022/06/11 03:18:11;;;;;;;;;;;;;;;;;;2090061;28;20023;-47
2022/06/11 03:19:11;;;;;;;;;;;;;;;;;;2090067;28;20020;-46
2022/06/11 03:20:12;;;;;;;;;;;;;;;;;;2089979;28;20093;-46
2022/06/11 03:21:13;;;;;;;;;;;;;;;;;;2089907;28;20007;-46
2022/06/11 03:22:15;;;;;;;;;;;;;;;;;;2089871;28;20289;-45
2022/06/11 03:23:16;;;;;;;;;;;;;;;;;;2089933;28;20487;-46
2022/06/11 03:24:17;;;;;;;;;;;;;;;;;;2089789;28;20081;-46
2022/06/11 03:25:18;;;;;;;;;;;;;;;;;;2090128;28;19924;-43
2022/06/11 03:26:19;;;;;;;;;;;;;;;;;;2089810;28;20444;-43
2022/06/11 03:27:20;;;;;;;;;;;;;;;;;;2089980;28;20031;-45
2022/06/11 03:28:22;;;;;;;;;;;;;;;;;;2089998;28;20004;-45
2022/06/11 03:29:23;;;;;;;;;;;;;;;;;;2089890;28;20035;-46
2022/06/11 03:30:25;;;;;;;;;;;;;;;;;;2089895;28;20086;-46
2022/06/11 03:31:26;;;;;;;;;;;;;;;;;;2089021;28;20277;-46
2022/06/11 03:32:27;;;;;;;;;;;;;;;;;;2089522;28;20051;-47
2022/06/11 03:33:28;;;;;;;;;;;;;;;;;;2089817;28;19924;-45
2022/06/11 03:34:28;;;;;;;;;;;;;;;;;;2089942;28;19976;-45
2022/06/11 03:35:29;;;;;;;;;;;;;;;;;;2089819;28;19921;-46
2022/06/11 03:36:31;;;;;;;;;;;;;;;;;;2089726;28;19921;-47
2022/06/11 03:37:31;;;;;;;;;;;;;;;;;;2089691;28;20043;-46
2022/06/11 03:38:32;;;;;;;;;;;;;;;;;;2089747;28;19932;-46
2022/06/11 03:39:33;;;;;;;;;;;;;;;;;;2090048;28;19999;-45
2022/06/11 03:40:34;;;;;;;;;;;;;;;;;;2089790;28;19920;-46
2022/06/11 03:41:35;;;;;;;;;;;;;;;;;;2094547;28;19920;-46
2022/06/11 03:42:36;;;;;;;;;;;;;;;;;;2098299;28;19959;-43
2022/06/11 03:43:37;;;;;;;;;;;;;;;;;;2098508;28;19920;-47
2022/06/11 03:44:38;;;;;;;;;;;;;;;;;;2098155;28;19924;-46
2022/06/11 03:45:39;;;;;;;;;;;;;;;;;;2098400;28;19999;-44
2022/06/11 03:46:40;;;;;;;;;;;;;;;;;;2098190;28;19920;-45
2022/06/11 03:47:40;;;;;;;;;;;;;;;;;;2097984;28;19921;-44
2022/06/11 03:48:41;;;;;;;;;;;;;;;;;;2098385;28;20369;-43
2022/06/11 03:49:42;;;;;;;;;;;;;;;;;;2098039;28;19955;-44
2022/06/11 03:50:43;;;;;;;;;;;;;;;;;;2098154;28;19920;-44
2022/06/11 03:51:44;;;;;;;;;;;;;;;;;;2098124;28;20459;-49
2022/06/11 03:52:45;;;;;;;;;;;;;;;;;;2098155;28;20007;-45
2022/06/11 03:53:46;;;;;;;;;;;;;;;;;;2098134;28;19920;-45
2022/06/11 03:54:47;;;;;;;;;;;;;;;;;;2097925;28;20062;-45
2022/06/11 03:55:48;;;;;;;;;;;;;;;;;;2098020;28;19966;-47
2022/06/11 03:56:48;;;;;;;;;;;;;;;;;;2097984;28;20360;-45
2022/06/11 03:57:49;;;;;;;;;;;;;;;;;;2097969;28;19927;-46
2022/06/11 03:58:50;;;;;;;;;;;;;;;;;;2097900;28;20364;-45
2022/06/11 03:59:51;;;;;;;;;;;;;;;;;;2098111;28;20361;-48
2022/06/11 04:02:11;;;;;;;;;;;;;;;;;;2098042;28;19920;-47
2022/06/11 04:03:12;;;;;;;;;;;;;;;;;;2097840;28;20003;-46
2022/06/11 04:04:14;;;;;;;;;;;;;;;;;;2098105;28;19920;-46
2022/06/11 04:05:15;;;;;;;;;;;;;;;;;;2097909;28;20387;-47
2022/06/11 04:06:16;;;;;;;;;;;;;;;;;;2098177;28;20158;-46
2022/06/11 04:07:16;;;;;;;;;;;;;;;;;;2097832;28;19927;-46
2022/06/11 04:08:17;;;;;;;;;;;;;;;;;;2097917;28;20380;-45
2022/06/11 04:09:18;;;;;;;;;;;;;;;;;;2097852;28;20053;-46
2022/06/11 04:10:19;;;;;;;;;;;;;;;;;;2098038;28;19920;-46
2022/06/11 04:11:20;;;;;;;;;;;;;;;;;;2093803;28;19920;-45
2022/06/11 04:12:21;;;;;;;;;;;;;;;;;;2089838;28;19997;-45
2022/06/11 04:13:22;;;;;;;;;;;;;;;;;;2089654;28;19921;-46
2022/06/11 04:14:23;;;;;;;;;;;;;;;;;;2089583;28;19928;-45
2022/06/11 04:15:24;;;;;;;;;;;;;;;;;;2089602;28;19964;-46
2022/06/11 04:16:25;;;;;;;;;;;;;;;;;;2089779;28;20370;-47
2022/06/11 04:17:25;;;;;;;;;;;;;;;;;;2089670;28;19920;-45
2022/06/11 04:18:26;;;;;;;;;;;;;;;;;;2089527;28;20405;-45
2022/06/11 04:19:27;;;;;;;;;;;;;;;;;;2089714;28;19960;-45
2022/06/11 04:20:28;;;;;;;;;;;;;;;;;;2089717;28;20298;-45
2022/06/11 04:21:29;;;;;;;;;;;;;;;;;;2089422;28;20003;-44
2022/06/11 04:22:30;;;;;;;;;;;;;;;;;;2089740;28;19920;-45
2022/06/11 04:23:31;;;;;;;;;;;;;;;;;;2089515;28;20031;-45
2022/06/11 04:24:32;;;;;;;;;;;;;;;;;;2089598;28;19964;-44
2022/06/11 04:25:33;;;;;;;;;;;;;;;;;;2089541;28;19970;-46
2022/06/11 04:26:34;;;;;;;;;;;;;;;;;;2089516;28;20298;-45
2022/06/11 04:27:34;;;;;;;;;;;;;;;;;;2089474;28;19920;-44
2022/06/11 04:28:35;;;;;;;;;;;;;;;;;;2089573;28;20408;-46
2022/06/11 04:29:36;;;;;;;;;;;;;;;;;;2089899;28;19928;-45
2022/06/11 04:30:38;;;;;;;;;;;;;;;;;;2089549;28;19920;-45
2022/06/11 04:31:39;;;;;;;;;;;;;;;;;;2089438;28;20015;-46
2022/06/11 04:32:43;;;;;;;;;;;;;;;;;;2089515;28;19925;-45
2022/06/11 04:33:44;;;;;;;;;;;;;;;;;;2089650;28;20437;-45
2022/06/11 04:34:45;;;;;;;;;;;;;;;;;;2089464;28;19921;-45
2022/06/11 04:35:46;;;;;;;;;;;;;;;;;;2089485;28;19920;-45
2022/06/11 04:36:47;;;;;;;;;;;;;;;;;;2089461;28;19924;-46
2022/06/11 04:37:48;;;;;;;;;;;;;;;;;;2093851;28;20529;-45
2022/06/11 04:38:49;;;;;;;;;;;;;;;;;;2097832;28;19924;-45
2022/06/11 04:39:49;;;;;;;;;;;;;;;;;;2097795;28;19920;-46
2022/06/11 04:40:50;;;;;;;;;;;;;;;;;;2097722;28;20308;-45
2022/06/11 04:41:51;;;;;;;;;;;;;;;;;;2097861;28;20008;-45
2022/06/11 04:42:52;;;;;;;;;;;;;;;;;;2097986;28;19962;-45
2022/06/11 04:43:53;;;;;;;;;;;;;;;;;;2099607;28;19968;-44
2022/06/11 04:44:54;;;;;;;;;;;;;;;;;;2099404;28;19920;-44
2022/06/11 04:45:55;;;;;;;;;;;;;;;;;;2099131;28;20003;-45
2022/06/11 04:46:56;;;;;;;;;;;;;;;;;;2099605;28;20011;-45
2022/06/11 04:47:57;;;;;;;;;;;;;;;;;;2099293;28;20433;-45
2022/06/11 04:48:58;;;;;;;;;;;;;;;;;;2099333;28;20015;-45
2022/06/11 04:49:59;;;;;;;;;;;;;;;;;;2099279;28;19920;-45
2022/06/11 04:51:00;;;;;;;;;;;;;;;;;;2099271;28;19927;-45
2022/06/11 04:52:01;;;;;;;;;;;;;;;;;;2099065;28;19920;-45
2022/06/11 04:53:02;;;;;;;;;;;;;;;;;;2099085;28;20012;-45
2022/06/11 04:54:03;;;;;;;;;;;;;;;;;;2099215;28;19921;-45
2022/06/11 04:55:04;;;;;;;;;;;;;;;;;;2099007;28;19925;-47
2022/06/11 04:56:05;;;;;;;;;;;;;;;;;;2099341;28;20358;-46
2022/06/11 04:57:05;;;;;;;;;;;;;;;;;;2099077;28;20041;-45
2022/06/11 04:58:06;;;;;;;;;;;;;;;;;;2099232;28;20037;-46
2022/06/11 04:59:07;;;;;;;;;;;;;;;;;;2099290;28;20015;-45
2022/06/11 05:00:12;;;;;;;;;;;;;;;;;;2099264;28;19947;-46
2022/06/11 05:01:13;;;;;;;;;;;;;;;;;;2098918;28;19966;-46
2022/06/11 05:02:13;;;;;;;;;;;;;;;;;;2099325;28;19920;-44
2022/06/11 05:03:14;;;;;;;;;;;;;;;;;;2099220;28;19920;-43
2022/06/11 05:04:16;;;;;;;;;;;;;;;;;;2099130;28;20267;-43
2022/06/11 05:05:20;;;;;;;;;;;;;;;;;;2099414;28;19966;-46
2022/06/11 05:06:21;;;;;;;;;;;;;;;;;;2098976;28;19920;-46
2022/06/11 05:07:22;;;;;;;;;;;;;;;;;;2098941;28;19927;-46
2022/06/11 05:08:24;;;;;;;;;;;;;;;;;;2099079;28;19967;-46
2022/06/11 05:09:25;;;;;;;;;;;;;;;;;;2099470;28;19928;-46
2022/06/11 05:10:25;;;;;;;;;;;;;;;;;;2099328;28;20485;-44
2022/06/11 05:11:26;;;;;;;;;;;;;;;;;;2094146;28;19927;-44
2022/06/11 05:12:27;;;;;;;;;;;;;;;;;;2090714;28;20496;-44
2022/06/11 05:13:29;;;;;;;;;;;;;;;;;;2090772;28;19924;-44
2022/06/11 05:14:30;;;;;;;;;;;;;;;;;;2090869;28;20341;-44
2022/06/11 05:15:31;;;;;;;;;;;;;;;;;;2090683;28;20283;-48
2022/06/11 05:16:31;;;;;;;;;;;;;;;;;;2090632;28;19928;-46
2022/06/11 05:17:33;;;;;;;;;;;;;;;;;;2090652;28;20444;-46
2022/06/11 05:18:33;;;;;;;;;;;;;;;;;;2091083;28;19992;-46
2022/06/11 05:19:34;;;;;;;;;;;;;;;;;;2090880;28;19921;-45
2022/06/11 05:20:35;;;;;;;;;;;;;;;;;;2090836;28;19960;-44
2022/06/11 05:21:36;;;;;;;;;;;;;;;;;;2090605;28;20351;-45
2022/06/11 05:22:37;;;;;;;;;;;;;;;;;;2090843;28;20385;-44
2022/06/11 05:23:38;;;;;;;;;;;;;;;;;;2090958;28;19936;-42
2022/06/11 05:24:42;;;;;;;;;;;;;;;;;;2091063;28;19921;-47
2022/06/11 05:25:43;;;;;;;;;;;;;;;;;;2090589;28;20477;-46
2022/06/11 05:26:44;;;;;;;;;;;;;;;;;;2090785;28;19928;-46
2022/06/11 05:27:46;;;;;;;;;;;;;;;;;;2090760;28;20334;-47
2022/06/11 05:28:47;;;;;;;;;;;;;;;;;;2090579;28;19986;-46
2022/06/11 05:29:48;;;;;;;;;;;;;;;;;;2090620;28;20404;-48
2022/06/11 05:30:49;;;;;;;;;;;;;;;;;;2090710;28;20062;-44
2022/06/11 05:31:49;;;;;;;;;;;;;;;;;;2090521;28;19921;-44
2022/06/11 05:32:55;;;;;;;;;;;;;;;;;;2090617;28;20282;-45
2022/06/11 05:33:55;;;;;;;;;;;;;;;;;;2094261;28;19920;-43
2022/06/11 05:34:56;;;;;;;;;;;;;;;;;;2098890;28;19947;-45
2022/06/11 05:35:57;;;;;;;;;;;;;;;;;;2098853;28;19921;-43
2022/06/11 05:36:58;;;;;;;;;;;;;;;;;;2099049;28;19958;-44
2022/06/11 05:37:59;;;;;;;;;;;;;;;;;;2098677;28;19927;-46
2022/06/11 05:39:00;;;;;;;;;;;;;;;;;;2098948;28;19920;-44
2022/06/11 05:40:01;;;;;;;;;;;;;;;;;;2099096;28;19927;-44
2022/06/11 05:41:02;;;;;;;;;;;;;;;;;;2098916;28;19999;-46
2022/06/11 05:42:03;;;;;;;;;;;;;;;;;;2099018;28;19986;-44
2022/06/11 05:43:04;;;;;;;;;;;;;;;;;;2099193;28;19925;-46
2022/06/11 05:44:05;;;;;;;;;;;;;;;;;;2098964;28;20407;-46
2022/06/11 05:45:05;;;;;;;;;;;;;;;;;;2098983;28;19920;-46
2022/06/11 05:46:06;;;;;;;;;;;;;;;;;;2099153;28;19967;-45
2022/06/11 05:47:07;;;;;;;;;;;;;;;;;;2098935;28;19932;-46
2022/06/11 05:48:08;;;;;;;;;;;;;;;;;;2099135;28;20488;-45
2022/06/11 05:49:09;;;;;;;;;;;;;;;;;;2098827;28;20015;-43
2022/06/11 05:50:11;;;;;;;;;;;;;;;;;;2098945;28;20444;-43
2022/06/11 05:51:12;;;;;;;;;;;;;;;;;;2098759;28;19966;-45
2022/06/11 05:52:18;;;;;;;;;;;;;;;;;;2098870;28;19920;-44
2022/06/11 05:53:20;;;;;;;;;;;;;;;;;;2098769;28;19948;-44
2022/06/11 05:54:21;;;;;;;;;;;;;;;;;;2098697;28;19973;-44
2022/06/11 05:55:22;;;;;;;;;;;;;;;;;;2098481;28;20361;-44
2022/06/11 05:56:23;;;;;;;;;;;;;;;;;;2098646;28;19921;-43
2022/06/11 05:57:23;;;;;;;;;;;;;;;;;;2098711;28;19921;-43
2022/06/11 05:58:24;;;;;;;;;;;;;;;;;;2098822;28;19962;-43
2022/06/11 05:59:26;;;;;;;;;;;;;;;;;;2098567;28;20024;-44
2022/06/11 06:00:28;;;;;;;;;;;;;;;;;;2098731;28;19921;-45
2022/06/11 06:01:28;;;;;;;;;;;;;;;;;;2098894;28;19924;-46
2022/06/11 06:02:29;;;;;;;;;;;;;;;;;;2098871;28;19956;-44
2022/06/11 06:03:30;;;;;;;;;;;;;;;;;;2098864;28;19978;-43
2022/06/11 06:04:31;;;;;;;;;;;;;;;;;;2098710;28;19920;-44
2022/06/11 06:05:32;;;;;;;;;;;;;;;;;;2098768;28;19926;-46
2022/06/11 06:06:33;;;;;;;;;;;;;;;;;;2098781;28;20284;-44
2022/06/11 06:07:34;;;;;;;;;;;;;;;;;;2098863;28;19921;-45
2022/06/11 06:08:35;;;;;;;;;;;;;;;;;;2098697;28;20057;-44
2022/06/11 06:09:36;;;;;;;;;;;;;;;;;;2099105;28;20173;-43
2022/06/11 06:10:37;;;;;;;;;;;;;;;;;;2099039;28;19920;-46
2022/06/11 06:11:37;;;;;;;;;;;;;;;;;;2092018;28;20032;-48
2022/06/11 06:12:38;;;;;;;;;;;;;;;;;;2090408;28;20381;-47
2022/06/11 06:13:49;;;;;;;;;;;;;;;;;;2090404;28;19920;-46
2022/06/11 06:14:50;;;;;;;;;;;;;;;;;;2090506;28;19972;-47
2022/06/11 06:15:51;;;;;;;;;;;;;;;;;;2090255;28;20011;-47
2022/06/11 06:16:52;;;;;;;;;;;;;;;;;;2090418;28;19963;-46
2022/06/11 06:17:52;;;;;;;;;;;;;;;;;;2090479;28;19921;-43
2022/06/11 06:18:55;;;;;;;;;;;;;;;;;;2090330;28;19958;-43
2022/06/11 06:19:56;;;;;;;;;;;;;;;;;;2090578;28;19960;-46
2022/06/11 06:20:57;;;;;;;;;;;;;;;;;;2090426;28;19928;-47
2022/06/11 06:21:58;;;;;;;;;;;;;;;;;;2090329;28;19921;-46
2022/06/11 06:22:59;;;;;;;;;;;;;;;;;;2090260;28;20004;-48
2022/06/11 06:23:59;;;;;;;;;;;;;;;;;;2090501;28;19921;-44
2022/06/11 06:25:00;;;;;;;;;;;;;;;;;;2090532;28;19920;-46
2022/06/11 06:26:01;;;;;;;;;;;;;;;;;;2090309;28;20007;-47
2022/06/11 06:27:02;;;;;;;;;;;;;;;;;;2090240;28;19964;-47
2022/06/11 06:28:03;;;;;;;;;;;;;;;;;;2090356;28;20449;-47
2022/06/11 06:29:04;;;;;;;;;;;;;;;;;;2090455;28;19931;-47
2022/06/11 06:30:05;;;;;;;;;;;;;;;;;;2092983;28;19950;-47
2022/06/11 06:31:05;;;;;;;;;;;;;;;;;;2098531;28;19964;-47
2022/06/11 06:32:07;;;;;;;;;;;;;;;;;;2098674;28;20082;-46
2022/06/11 06:33:07;;;;;;;;;;;;;;;;;;2098594;28;19924;-47
2022/06/11 06:34:09;;;;;;;;;;;;;;;;;;2098715;28;20015;-44
2022/06/11 06:35:09;;;;;;;;;;;;;;;;;;2098640;28;19927;-45
2022/06/11 06:36:10;;;;;;;;;;;;;;;;;;2098384;28;19920;-46
2022/06/11 06:37:11;;;;;;;;;;;;;;;;;;2098586;28;19928;-44
2022/06/11 06:38:12;;;;;;;;;;;;;;;;;;2098560;28;20396;-47
2022/06/11 06:39:13;;;;;;;;;;;;;;;;;;2098490;28;20037;-50
2022/06/11 06:40:14;;;;;;;;;;;;;;;;;;2098779;28;19920;-50
2022/06/11 06:41:15;;;;;;;;;;;;;;;;;;2098461;28;20340;-49
2022/06/11 06:42:16;;;;;;;;;;;;;;;;;;2098441;28;19973;-47
2022/06/11 06:43:17;;;;;;;;;;;;;;;;;;2098437;28;19920;-48
2022/06/11 06:44:18;;;;;;;;;;;;;;;;;;2098848;28;19924;-44
2022/06/11 06:45:20;;;;;;;;;;;;;;;;;;2098365;28;19963;-45
2022/06/11 06:46:21;;;;;;;;;;;;;;;;;;2098505;28;20011;-44
2022/06/11 06:47:22;;;;;;;;;;;;;;;;;;2098631;28;19921;-48
2022/06/11 06:48:23;;;;;;;;;;;;;;;;;;2098416;28;19927;-46
2022/06/11 06:49:24;;;;;;;;;;;;;;;;;;2098717;28;19920;-49
2022/06/11 06:50:25;;;;;;;;;;;;;;;;;;2099122;28;19977;-47
2022/06/11 06:51:25;;;;;;;;;;;;;;;;;;2098599;28;19955;-45
2022/06/11 06:52:26;;;;;;;;;;;;;;;;;;2098495;28;20263;-46
2022/06/11 06:53:27;;;;;;;;;;;;;;;;;;2098576;28;19924;-44
2022/06/11 06:54:28;;;;;;;;;;;;;;;;;;2098436;28;19935;-44
2022/06/11 06:55:29;;;;;;;;;;;;;;;;;;2098378;28;19928;-45
2022/06/11 06:56:33;;;;;;;;;;;;;;;;;;2098277;28;19967;-44
2022/06/11 06:57:34;;;;;;;;;;;;;;;;;;2098407;28;20019;-44
2022/06/11 06:58:34;;;;;;;;;;;;;;;;;;2098586;28;19921;-44